Triangle, Virginia
Current Conditions -  °F | °C
As of 12:56 PM on Friday 21 Nov 2014 (Local Time) from KNYG Reporting Station
Few Clouds Few Clouds  
Wind Chill: 29°   Ceiling: Unl
Heat Index: 38°   Visibility: 10mi
Dew Point:   Wind: 15mph
Humidity: 25%   Direction: 360°N
Pressure: 30.48"   Gusts: 24mph
Location:  38.55°N, 77.34°W
Report Text: KNYG 211756Z 36013G21KT 10SM FEW060 03/M15 A3048 RMK AO2 SLP323 T00331150 10033 21006 51003 $
Loading
Personal Weather Stations






























Interactive Weather Map New forecast layout! Learn more

10-Day Weather Forecast

Advertisements
Track Severe Weather on mobile